Time;durP1;ratioP1;P1;durP2;ratioP2;P2;SDS_P1;SDS_P2;PMS_P1;PMS_P2;Temp;Humidity;BMP_temperature;BMP_pressure;BME280_temperature;BME280_humidity;BME280_pressure;Samples;Min_cycle;Max_cycle;Signal;HPM_P1;HPM_P2
2024/03/07 00:00:53;;;;;;;13.03;6.23;;;;;;;7.06;100.00;102135.22;5095139;28;20510;-69
2024/03/07 00:03:20;;;;;;;11.30;5.43;;;;;;;7.07;100.00;102131.47;5095222;28;20464;-69
2024/03/07 00:05:47;;;;;;;14.70;4.93;;;;;;;7.06;100.00;102140.59;5095342;28;20943;-69
2024/03/07 00:08:13;;;;;;;16.80;5.63;;;;;;;7.02;100.00;102134.06;5094776;28;20520;-69
2024/03/07 00:10:41;;;;;;;14.57;6.10;;;;;;;7.05;100.00;102134.41;5095311;28;20526;-69
2024/03/07 00:13:08;;;;;;;9.33;4.43;;;;;;;7.06;100.00;102136.03;5094722;28;20883;-69
2024/03/07 00:15:35;;;;;;;29.47;6.50;;;;;;;7.09;100.00;102134.75;5095089;28;20440;-68
2024/03/07 00:18:03;;;;;;;12.17;5.37;;;;;;;7.14;100.00;102137.53;5095006;28;20959;-68
2024/03/07 00:20:30;;;;;;;14.43;5.47;;;;;;;7.15;100.00;102133.78;5094987;28;20484;-68
2024/03/07 00:22:56;;;;;;;20.27;6.30;;;;;;;7.15;100.00;102139.16;5094731;28;20474;-68
2024/03/07 00:25:23;;;;;;;15.90;6.33;;;;;;;7.11;100.00;102129.91;5094925;28;20468;-69
2024/03/07 00:27:52;;;;;;;10.23;5.20;;;;;;;7.07;100.00;102131.47;5094577;28;20523;-69
2024/03/07 00:30:19;;;;;;;21.03;7.63;;;;;;;7.09;100.00;102132.06;5095423;28;20441;-69
2024/03/07 00:32:47;;;;;;;13.30;5.77;;;;;;;7.10;100.00;102136.38;5095099;28;20497;-69
2024/03/07 00:35:15;;;;;;;8.93;3.80;;;;;;;7.08;100.00;102131.22;5094540;28;20933;-69
2024/03/07 00:37:42;;;;;;;24.90;5.53;;;;;;;7.10;100.00;102133.69;5094682;28;20443;-69
2024/03/07 00:40:10;;;;;;;14.03;5.70;;;;;;;7.11;100.00;102139.88;5094467;28;20533;-69
2024/03/07 00:42:36;;;;;;;11.37;5.20;;;;;;;7.11;100.00;102138.00;5094559;28;20559;-69
2024/03/07 00:45:04;;;;;;;15.23;5.73;;;;;;;7.10;100.00;102136.38;5094785;28;20521;-69
2024/03/07 00:47:31;;;;;;;17.27;5.10;;;;;;;7.04;100.00;102135.47;5094063;28;20928;-70
2024/03/07 00:49:58;;;;;;;15.73;5.27;;;;;;;6.91;100.00;102133.03;5094871;28;20539;-70
2024/03/07 00:52:26;;;;;;;15.93;6.00;;;;;;;6.86;100.00;102132.09;5094169;28;20990;-69
2024/03/07 00:54:53;;;;;;;24.10;6.20;;;;;;;6.88;100.00;102130.00;5094434;28;20527;-69
2024/03/07 00:57:19;;;;;;;14.63;6.23;;;;;;;6.92;100.00;102131.16;5094380;28;20442;-70
2024/03/07 00:59:46;;;;;;;19.93;6.70;;;;;;;6.90;100.00;102125.19;5094285;28;20489;-71
2024/03/07 01:02:13;;;;;;;10.53;5.17;;;;;;;6.89;100.00;102134.31;5093908;28;20980;-70
2024/03/07 01:04:39;;;;;;;12.40;5.73;;;;;;;6.90;100.00;102125.19;5094393;28;20642;-70
2024/03/07 01:07:06;;;;;;;15.43;6.33;;;;;;;6.92;100.00;102121.19;5094084;28;20508;-71
2024/03/07 01:09:35;;;;;;;14.23;5.43;;;;;;;6.95;100.00;102127.97;5094232;28;20855;-70
2024/03/07 01:12:04;;;;;;;15.23;6.87;;;;;;;6.95;100.00;102122.59;5094117;28;20467;-70
2024/03/07 01:14:31;;;;;;;14.97;6.10;;;;;;;6.88;100.00;102120.03;5094149;28;20793;-70
2024/03/07 01:16:57;;;;;;;14.50;6.70;;;;;;;6.90;100.00;102119.78;5094025;28;20449;-70
2024/03/07 01:19:24;;;;;;;14.10;5.00;;;;;;;6.88;100.00;102116.53;5093953;28;20464;-70
2024/03/07 01:21:51;;;;;;;12.97;5.00;;;;;;;6.88;100.00;102114.66;5102336;22;20576;-71
2024/03/07 01:24:20;;;;;;;18.93;5.37;;;;;;;6.90;100.00;102119.78;5073283;28;20489;-71
2024/03/07 01:26:48;;;;;;;19.27;6.40;;;;;;;6.95;100.00;102118.03;5073309;28;20437;-71
2024/03/07 01:29:15;;;;;;;15.07;6.77;;;;;;;7.00;100.00;102114.63;5073487;28;20502;-70
2024/03/07 01:31:42;;;;;;;12.20;4.50;;;;;;;7.00;100.00;102115.44;5073582;28;20510;-70
2024/03/07 01:34:09;;;;;;;17.43;4.67;;;;;;;7.00;100.00;102120.84;5053503;28;20462;-70
2024/03/07 01:36:36;;;;;;;12.30;5.63;;;;;;;6.98;100.00;102120.22;5054181;28;20537;-70
2024/03/07 01:39:03;;;;;;;12.23;5.63;;;;;;;6.98;100.00;102116.72;5053808;28;20476;-70
2024/03/07 01:41:30;;;;;;;13.80;5.37;;;;;;;7.00;100.00;102126.22;5053323;28;20485;-70
2024/03/07 01:43:58;;;;;;;15.20;6.07;;;;;;;7.01;100.00;102125.16;5053381;28;20557;-71
2024/03/07 01:46:25;;;;;;;11.83;6.40;;;;;;;6.97;100.00;102120.47;5053392;28;20799;-71
2024/03/07 01:48:51;;;;;;;11.93;5.70;;;;;;;6.98;100.00;102122.13;5053056;28;20496;-71
2024/03/07 01:51:18;;;;;;;20.10;5.60;;;;;;;7.01;100.00;102121.66;5053289;28;20519;-68
2024/03/07 01:53:45;;;;;;;19.93;6.40;;;;;;;6.98;100.00;102122.94;5053254;28;20462;-69
2024/03/07 01:56:12;;;;;;;18.33;5.47;;;;;;;6.99;100.00;102126.44;5053297;28;20447;-69
2024/03/07 01:58:39;;;;;;;10.47;5.10;;;;;;;6.94;100.00;102123.66;5053023;28;20446;-71
2024/03/07 02:01:08;;;;;;;16.43;7.07;;;;;;;6.90;100.00;102125.19;5053237;28;20477;-70
2024/03/07 02:03:36;;;;;;;23.50;7.20;;;;;;;6.88;100.00;102121.91;5053581;28;20456;-70
2024/03/07 02:06:03;;;;;;;14.83;6.07;;;;;;;6.85;100.00;102111.59;5053599;28;20446;-70
2024/03/07 02:08:31;;;;;;;15.10;7.50;;;;;;;6.86;100.00;102116.75;5053254;28;20445;-70
2024/03/07 02:10:58;;;;;;;17.77;6.27;;;;;;;6.80;100.00;102110.44;5053208;28;20438;-70
2024/03/07 02:13:25;;;;;;;11.77;5.33;;;;;;;6.79;100.00;102114.19;5053380;28;20493;-71
2024/03/07 02:15:51;;;;;;;14.20;5.30;;;;;;;6.77;100.00;102112.78;5053117;28;20529;-71
2024/03/07 02:18:20;;;;;;;14.10;7.23;;;;;;;6.73;100.00;102115.16;5052684;28;20942;-70
2024/03/07 02:20:48;;;;;;;19.23;5.67;;;;;;;6.75;100.00;102110.34;5052702;28;20522;-70
2024/03/07 02:23:15;;;;;;;18.40;7.67;;;;;;;6.78;100.00;102112.56;5052642;28;20561;-72
2024/03/07 02:25:42;;;;;;;22.63;5.40;;;;;;;6.73;100.00;102107.09;5053147;28;20441;-70
2024/03/07 02:28:09;;;;;;;12.30;4.83;;;;;;;6.74;100.00;102108.72;5052693;28;20787;-70
2024/03/07 02:30:36;;;;;;;14.07;6.07;;;;;;;6.74;100.00;102106.03;5052945;28;20450;-70
2024/03/07 02:33:06;;;;;;;16.20;6.33;;;;;;;6.75;100.00;102099.56;5056189;28;20497;-70
2024/03/07 02:35:34;;;;;;;17.63;6.90;;;;;;;6.75;100.00;102107.66;5056468;28;20881;-70
2024/03/07 02:38:03;;;;;;;14.63;6.90;;;;;;;6.78;100.00;102096.41;5056954;28;20438;-70
2024/03/07 02:40:30;;;;;;;15.10;6.37;;;;;;;6.82;100.00;102102.97;5056588;28;20525;-70
2024/03/07 02:42:56;;;;;;;16.93;6.37;;;;;;;6.81;100.00;102095.91;5056231;28;20544;-70
2024/03/07 02:45:23;;;;;;;12.17;6.13;;;;;;;6.82;100.00;102097.56;5056876;28;20476;-70
2024/03/07 02:47:49;;;;;;;16.37;6.27;;;;;;;6.84;100.00;102091.94;5056452;28;20530;-70
2024/03/07 02:50:16;;;;;;;42.57;8.87;;;;;;;6.83;100.00;102103.78;5056455;28;20474;-70
2024/03/07 02:52:43;;;;;;;21.70;5.40;;;;;;;6.86;100.00;102103.28;5056012;28;20823;-70
2024/03/07 02:55:11;;;;;;;26.50;7.63;;;;;;;6.87;100.00;102098.75;5056357;28;20439;-70
2024/03/07 02:57:37;;;;;;;18.83;8.47;;;;;;;6.88;100.00;102103.88;5056503;28;20450;-70
2024/03/07 03:00:13;;;;;;;18.03;7.00;;;;;;;6.86;100.00;102107.84;5055996;28;20529;-70
2024/03/07 03:02:40;;;;;;;22.33;5.60;;;;;;;6.78;100.00;102101.81;5056498;28;20494;-70
2024/03/07 03:05:09;;;;;;;20.03;8.27;;;;;;;6.70;100.00;102104.84;5055952;28;20442;-70
2024/03/07 03:07:35;;;;;;;19.67;8.27;;;;;;;6.71;100.00;102109.19;5056148;28;20442;-70
2024/03/07 03:10:07;;;;;;;31.70;8.40;;;;;;;6.78;100.00;102104.50;5056142;28;20448;-70
2024/03/07 03:12:36;;;;;;;19.03;8.20;;;;;;;6.82;100.00;102116.44;5056019;28;20973;-70
2024/03/07 03:15:04;;;;;;;18.53;8.27;;;;;;;6.80;100.00;102109.63;5056117;28;20442;-70
2024/03/07 03:17:31;;;;;;;19.40;7.30;;;;;;;6.77;100.00;102110.94;5056701;28;20450;-69
2024/03/07 03:19:58;;;;;;;15.77;6.60;;;;;;;6.73;100.00;102112.47;5055679;28;20976;-69
2024/03/07 03:22:26;;;;;;;15.43;7.43;;;;;;;6.68;99.48;102111.53;5055475;28;20526;-69
2024/03/07 03:24:55;;;;;;;13.20;6.00;;;;;;;6.68;99.11;102101.56;5055919;28;20442;-69
2024/03/07 03:27:22;;;;;;;18.33;7.43;;;;;;;6.59;98.83;102113.75;5055776;28;20519;-69
2024/03/07 03:29:50;;;;;;;23.23;6.57;;;;;;;6.56;99.22;102106.19;5055930;28;20513;-69
2024/03/07 03:32:17;;;;;;;11.53;5.80;;;;;;;6.57;99.82;102110.50;5056010;28;20507;-69
2024/03/07 03:34:43;;;;;;;15.20;6.93;;;;;;;6.57;100.00;102107.81;5055397;28;20950;-69
2024/03/07 03:37:11;;;;;;;10.97;6.47;;;;;;;6.61;100.00;102114.34;5055672;28;20523;-69
2024/03/07 03:39:37;;;;;;;21.57;9.03;;;;;;;6.66;99.99;102110.97;5055296;28;20947;-69
2024/03/07 03:42:06;;;;;;;13.17;6.37;;;;;;;6.52;98.81;102121.16;5055759;28;20569;-69
2024/03/07 03:44:34;;;;;;;22.60;7.37;;;;;;;6.50;99.20;102118.69;5054443;28;20798;-69
2024/03/07 03:47:03;;;;;;;19.27;7.10;;;;;;;6.52;99.45;102111.22;5055384;28;20445;-69
2024/03/07 03:49:30;;;;;;;14.60;6.37;;;;;;;6.51;99.02;102114.16;5055485;28;20491;-69
2024/03/07 03:51:57;;;;;;;25.80;6.47;;;;;;;6.53;98.77;102120.91;5055582;28;20525;-69
2024/03/07 03:54:24;;;;;;;10.07;6.27;;;;;;;6.52;98.61;102127.34;5055618;28;20442;-69
2024/03/07 03:56:50;;;;;;;11.90;6.53;;;;;;;6.47;98.59;102121.06;5055004;28;20855;-69
2024/03/07 03:59:17;;;;;;;18.23;7.33;;;;;;;6.46;98.72;102127.47;5054927;28;21021;-69
2024/03/07 04:01:45;;;;;;;22.30;7.33;;;;;;;6.47;99.04;102124.56;5055819;28;20493;-69
2024/03/07 04:04:13;;;;;;;16.00;6.63;;;;;;;6.42;99.06;102120.91;5055468;28;20446;-69
2024/03/07 04:06:40;;;;;;;23.23;8.60;;;;;;;6.46;98.83;102122.09;5055096;28;20533;-69
2024/03/07 04:09:07;;;;;;;13.13;6.87;;;;;;;6.40;98.69;102131.09;5055384;28;20442;-70
2024/03/07 04:11:33;;;;;;;16.00;7.03;;;;;;;6.44;98.90;102130.41;5055426;28;20452;-69
2024/03/07 04:14:01;;;;;;;25.73;7.27;;;;;;;6.48;99.16;102133.44;5055118;28;20454;-69
2024/03/07 04:16:27;;;;;;;17.40;7.60;;;;;;;6.50;99.50;102131.31;5054969;28;20496;-69
2024/03/07 04:18:54;;;;;;;28.20;9.20;;;;;;;6.50;99.53;102125.94;5054849;28;20531;-69
2024/03/07 04:21:22;;;;;;;17.97;7.37;;;;;;;6.45;99.55;102129.34;5054887;28;20514;-69
2024/03/07 04:23:49;;;;;;;15.63;7.10;;;;;;;6.48;99.47;102122.69;5054457;28;21041;-69
2024/03/07 04:26:16;;;;;;;15.30;6.40;;;;;;;6.38;99.41;102122.47;5055025;28;20525;-69
2024/03/07 04:28:42;;;;;;;11.93;4.77;;;;;;;6.42;99.12;102129.84;5054615;28;20538;-69
2024/03/07 04:31:09;;;;;;;12.63;5.40;;;;;;;6.46;98.93;102124.78;5054645;28;20524;-70
2024/03/07 04:33:36;;;;;;;14.20;7.33;;;;;;;6.39;98.90;102129.47;5054911;28;20843;-70
2024/03/07 04:36:03;;;;;;;14.00;6.70;;;;;;;6.42;98.98;102121.75;5054195;28;20477;-69
2024/03/07 04:38:31;;;;;;;12.30;5.47;;;;;;;6.40;98.75;102120.34;5054448;28;20570;-69
2024/03/07 04:40:57;;;;;;;18.10;6.40;;;;;;;6.44;98.36;102121.50;5054708;28;20537;-69
2024/03/07 04:43:26;;;;;;;16.83;6.77;;;;;;;6.46;97.93;102119.41;5054191;28;20966;-69
2024/03/07 04:45:52;;;;;;;15.30;7.00;;;;;;;6.43;98.04;102119.88;5054072;28;20536;-69
2024/03/07 04:48:19;;;;;;;16.90;6.43;;;;;;;6.44;97.90;102121.50;5054304;28;20451;-68
2024/03/07 04:50:46;;;;;;;9.43;5.13;;;;;;;6.42;97.70;102131.69;5054217;28;20438;-69
2024/03/07 04:53:13;;;;;;;13.10;6.30;;;;;;;6.41;97.73;102138.94;5054404;28;20464;-69
2024/03/07 04:55:40;;;;;;;8.37;4.93;;;;;;;6.40;97.17;102128.41;5054131;28;20465;-69
2024/03/07 04:58:07;;;;;;;16.93;6.17;;;;;;;6.28;96.51;102131.91;5054093;28;20456;-69
2024/03/07 05:00:34;;;;;;;21.83;10.33;;;;;;;6.23;96.73;102131.81;5054104;28;20443;-69
2024/03/07 05:03:00;;;;;;;15.53;4.83;;;;;;;6.15;97.04;102126.75;5053879;28;20490;-68
2024/03/07 05:05:27;;;;;;;16.13;6.60;;;;;;;6.15;97.13;102132.16;5053954;28;20448;-68
2024/03/07 05:07:55;;;;;;;11.90;6.03;;;;;;;6.09;96.71;102133.09;5053928;28;20484;-68
2024/03/07 05:10:22;;;;;;;13.63;6.07;;;;;;;6.01;97.11;102138.81;5054233;28;20477;-69
2024/03/07 05:12:50;;;;;;;12.47;6.57;;;;;;;5.87;97.62;102135.47;5053856;28;20462;-69
2024/03/07 05:15:17;;;;;;;9.73;4.83;;;;;;;5.79;97.62;102144.69;5053830;28;20459;-68
2024/03/07 05:17:43;;;;;;;20.10;6.60;;;;;;;5.76;97.84;102136.28;5053725;28;20453;-69
2024/03/07 05:20:12;;;;;;;13.50;6.67;;;;;;;5.75;98.28;102140.81;5053799;28;20477;-69
2024/03/07 05:22:40;;;;;;;15.10;6.33;;;;;;;5.72;98.67;102145.88;5053487;28;20486;-69
2024/03/07 05:25:07;;;;;;;18.20;8.70;;;;;;;5.65;98.40;102145.13;5053387;28;20932;-70
2024/03/07 05:27:35;;;;;;;19.67;6.00;;;;;;;5.57;98.29;102143.56;5053962;28;20521;-70
2024/03/07 05:30:05;;;;;;;12.50;5.60;;;;;;;5.47;99.18;102149.50;5053564;28;20448;-70
2024/03/07 05:32:34;;;;;;;13.00;4.83;;;;;;;5.47;99.42;102146.00;5053556;28;20512;-70
2024/03/07 05:35:00;;;;;;;23.27;6.80;;;;;;;5.44;100.00;102144.59;5053209;28;20477;-70
2024/03/07 05:37:27;;;;;;;12.17;6.03;;;;;;;5.40;100.00;102145.25;5054156;28;20446;-70
2024/03/07 05:39:54;;;;;;;18.97;6.73;;;;;;;5.38;100.00;102147.38;5053325;28;20453;-69
2024/03/07 05:42:21;;;;;;;20.73;7.03;;;;;;;5.37;100.00;102143.88;5052623;28;20492;-70
2024/03/07 05:44:48;;;;;;;11.97;5.40;;;;;;;5.31;100.00;102153.66;5053248;28;20434;-70
2024/03/07 05:47:16;;;;;;;10.53;6.03;;;;;;;5.34;100.00;102154.25;5053035;28;20437;-69
2024/03/07 05:49:43;;;;;;;17.60;8.63;;;;;;;5.27;100.00;102152.47;5053104;28;20500;-69
2024/03/07 05:52:10;;;;;;;17.90;7.73;;;;;;;5.27;100.00;102160.53;5053012;28;20489;-69
2024/03/07 05:54:37;;;;;;;11.80;5.73;;;;;;;5.25;100.00;102151.88;5053055;28;20526;-69
2024/03/07 05:57:05;;;;;;;15.30;6.17;;;;;;;5.19;100.00;102163.53;5052996;28;20555;-70
2024/03/07 05:59:32;;;;;;;12.77;6.00;;;;;;;5.12;100.00;102156.59;5053398;28;20956;-69
2024/03/07 06:01:59;;;;;;;14.77;6.93;;;;;;;5.07;100.00;102158.09;5052557;28;20482;-69
2024/03/07 06:04:27;;;;;;;18.43;8.90;;;;;;;5.09;100.00;102162.41;5053351;28;20547;-70
2024/03/07 06:06:53;;;;;;;14.60;6.30;;;;;;;5.09;100.00;102159.72;5054267;28;20513;-69
2024/03/07 06:09:21;;;;;;;11.57;6.47;;;;;;;5.06;100.00;102163.69;5057940;28;20445;-69
2024/03/07 06:11:49;;;;;;;10.70;6.30;;;;;;;5.02;100.00;102163.31;5057664;28;20496;-69
2024/03/07 06:14:16;;;;;;;13.53;5.53;;;;;;;5.00;100.00;102165.41;5057519;28;20529;-69
2024/03/07 06:16:43;;;;;;;17.00;5.57;;;;;;;4.94;100.00;102165.47;5057353;28;20869;-69
2024/03/07 06:19:09;;;;;;;11.73;5.83;;;;;;;4.92;100.00;102167.59;5057124;28;20524;-69
2024/03/07 06:21:40;;;;;;;14.17;7.10;;;;;;;4.88;100.00;102167.22;5057070;28;20450;-68
2024/03/07 06:24:08;;;;;;;18.23;6.20;;;;;;;4.87;100.00;102170.09;5057165;28;20800;-67
2024/03/07 06:26:45;;;;;;;12.30;6.90;;;;;;;4.85;100.00;102175.69;5057139;28;20446;-68
2024/03/07 06:29:13;;;;;;;10.47;5.53;;;;;;;4.83;100.00;102180.47;5057203;28;20953;-67
2024/03/07 06:31:41;;;;;;;7.83;4.67;;;;;;;4.84;100.00;102170.56;5056870;28;20430;-67
2024/03/07 06:34:08;;;;;;;15.93;6.63;;;;;;;4.87;100.00;102175.47;5056474;28;20450;-67
2024/03/07 06:36:35;;;;;;;22.30;6.23;;;;;;;4.83;100.00;102179.66;5057152;28;20961;-68
2024/03/07 06:39:04;;;;;;;13.83;6.87;;;;;;;4.86;100.00;102180.00;5056842;28;20440;-68
2024/03/07 06:41:31;;;;;;;11.20;6.40;;;;;;;4.86;100.00;102184.56;5056665;28;20445;-68
2024/03/07 06:43:58;;;;;;;12.47;6.40;;;;;;;4.88;100.00;102182.50;5056974;28;20584;-68
2024/03/07 06:46:25;;;;;;;17.13;8.00;;;;;;;4.81;100.00;102180.69;5056566;28;20444;-68
2024/03/07 06:48:52;;;;;;;16.70;6.77;;;;;;;4.85;100.00;102185.63;5056670;28;20438;-68
2024/03/07 06:51:18;;;;;;;18.13;6.53;;;;;;;4.90;100.00;102188.44;5056707;28;20442;-68
2024/03/07 06:53:46;;;;;;;17.50;7.87;;;;;;;4.90;100.00;102183.91;5056493;28;20466;-68
2024/03/07 06:56:14;;;;;;;10.53;5.50;;;;;;;4.96;100.00;102191.06;5056511;28;20488;-68
2024/03/07 06:58:42;;;;;;;12.73;6.60;;;;;;;4.95;100.00;102192.09;5056130;28;20533;-68
2024/03/07 07:01:10;;;;;;;20.43;7.17;;;;;;;4.98;100.00;102204.28;5056572;28;20457;-68
2024/03/07 07:03:38;;;;;;;12.20;6.97;;;;;;;5.00;100.00;102196.78;5055874;28;21029;-68
2024/03/07 07:06:06;;;;;;;9.23;5.27;;;;;;;4.98;100.00;102199.72;5056472;28;20462;-68
2024/03/07 07:08:33;;;;;;;14.30;6.07;;;;;;;4.93;100.00;102204.13;5056244;28;20438;-67
2024/03/07 07:11:00;;;;;;;8.60;5.47;;;;;;;4.95;100.00;102197.47;5055800;28;20944;-68
2024/03/07 07:13:28;;;;;;;11.60;6.50;;;;;;;5.01;100.00;102206.53;5056337;28;20874;-68
2024/03/07 07:15:55;;;;;;;14.30;6.60;;;;;;;5.05;100.00;102205.03;5056187;28;20536;-68
2024/03/07 07:18:23;;;;;;;18.90;6.10;;;;;;;5.07;100.00;102201.06;5055701;28;20442;-69
2024/03/07 07:20:51;;;;;;;10.43;5.90;;;;;;;5.11;100.00;102206.81;5055936;28;20955;-68
2024/03/07 07:23:18;;;;;;;17.40;7.07;;;;;;;5.18;100.00;102207.56;5086122;22;20497;-67
2024/03/07 07:25:46;;;;;;;13.20;5.17;;;;;;;5.21;100.00;102203.59;5075923;28;20440;-69
2024/03/07 07:28:13;;;;;;;12.07;5.57;;;;;;;5.25;99.43;102204.78;5076208;28;20452;-68
2024/03/07 07:30:41;;;;;;;16.07;6.60;;;;;;;5.27;98.90;102208.91;5076357;28;20441;-69
2024/03/07 07:33:07;;;;;;;8.30;4.90;;;;;;;5.32;98.14;102211.72;5075805;28;20571;-69
2024/03/07 07:35:35;;;;;;;11.17;5.17;;;;;;;5.36;97.33;102211.25;5075758;28;20433;-69
2024/03/07 07:38:02;;;;;;;8.80;5.20;;;;;;;5.35;96.42;102206.94;5075822;28;20425;-67
2024/03/07 07:40:31;;;;;;;6.57;3.70;;;;;;;5.37;95.73;102207.53;5076200;28;20482;-69
2024/03/07 07:42:58;;;;;;;7.53;4.17;;;;;;;5.42;95.04;102207.69;5076492;28;20493;-70
2024/03/07 07:45:25;;;;;;;11.13;5.13;;;;;;;5.41;94.30;102206.03;5076934;28;20975;-71
2024/03/07 07:47:54;;;;;;;14.57;5.30;;;;;;;5.46;94.31;102207.00;5076709;28;20480;-68
2024/03/07 07:50:23;;;;;;;12.00;4.20;;;;;;;5.48;93.49;102204.06;5076199;28;20441;-68
2024/03/07 07:52:51;;;;;;;11.27;6.00;;;;;;;5.49;92.97;102201.19;5075997;28;20461;-67
2024/03/07 07:55:19;;;;;;;8.13;4.70;;;;;;;5.55;92.52;102210.19;5075953;28;20461;-69
2024/03/07 07:57:47;;;;;;;9.60;5.23;;;;;;;5.61;92.06;102200.38;5078319;28;20495;-66
2024/03/07 08:00:21;;;;;;;8.60;4.70;;;;;;;5.62;90.97;102205.53;5085798;28;20433;-68
2024/03/07 08:02:54;;;;;;;15.83;5.00;;;;;;;5.59;89.30;102205.19;5081377;28;20618;-68
2024/03/07 08:05:22;;;;;;;11.33;4.67;;;;;;;5.56;88.03;102198.38;5075233;28;20960;-68
2024/03/07 08:07:50;;;;;;;7.10;4.70;;;;;;;5.54;87.90;102200.50;5074961;28;20449;-67
2024/03/07 08:10:18;;;;;;;13.93;5.00;;;;;;;5.60;87.68;102202.25;5075359;28;20752;-68
2024/03/07 08:12:45;;;;;;;7.90;3.93;;;;;;;5.61;86.84;102203.06;5074920;28;21020;-68
2024/03/07 08:15:13;;;;;;;9.20;5.00;;;;;;;5.66;85.96;102206.72;5074948;28;20441;-68
2024/03/07 08:17:42;;;;;;;11.00;4.73;;;;;;;5.64;84.37;102203.44;5074675;28;20453;-68
2024/03/07 08:20:12;;;;;;;12.17;5.20;;;;;;;5.65;84.24;102202.41;5075195;28;20452;-68
2024/03/07 08:22:40;;;;;;;10.30;5.50;;;;;;;5.71;84.46;102198.81;5074397;28;20499;-68
2024/03/07 08:25:09;;;;;;;7.97;3.90;;;;;;;5.74;84.22;102203.72;5074995;28;20473;-68
2024/03/07 08:27:36;;;;;;;11.27;6.30;;;;;;;5.82;83.47;102203.41;5074580;28;20937;-68
2024/03/07 08:30:03;;;;;;;7.20;3.57;;;;;;;5.89;83.31;102207.84;5074116;28;20447;-67
2024/03/07 08:32:30;;;;;;;11.53;4.00;;;;;;;5.93;82.51;102209.91;5074889;28;20485;-70
2024/03/07 08:34:56;;;;;;;6.37;2.77;;;;;;;6.00;82.50;102212.47;5074575;28;20437;-69
2024/03/07 08:37:24;;;;;;;13.37;6.00;;;;;;;6.06;82.17;102211.56;5074484;28;20513;-70
2024/03/07 08:39:52;;;;;;;10.57;4.53;;;;;;;6.14;80.67;102213.09;5074127;28;20445;-70
2024/03/07 08:42:19;;;;;;;11.40;4.77;;;;;;;6.17;78.40;102216.16;5074253;28;20458;-70
2024/03/07 08:44:46;;;;;;;14.30;5.27;;;;;;;6.20;76.84;102212.19;5074381;28;20437;-70
2024/03/07 08:47:12;;;;;;;7.80;4.90;;;;;;;6.30;77.39;102212.44;5074703;28;20476;-70
2024/03/07 08:49:39;;;;;;;8.60;3.43;;;;;;;6.40;75.67;102215.34;5074277;28;20857;-71
2024/03/07 08:52:08;;;;;;;12.67;4.93;;;;;;;6.45;75.25;102217.34;5074139;28;20464;-69
2024/03/07 08:54:37;;;;;;;8.67;4.90;;;;;;;6.47;73.83;102215.25;5074313;28;20476;-69
2024/03/07 08:57:04;;;;;;;7.67;3.67;;;;;;;6.47;74.27;102215.25;5074423;28;20790;-68
2024/03/07 08:59:33;;;;;;;8.57;3.30;;;;;;;6.51;73.21;102214.56;5073809;28;20964;-68
2024/03/07 09:02:01;;;;;;;10.93;4.43;;;;;;;6.60;73.56;102216.88;5073767;28;22824;-72
2024/03/07 09:04:28;;;;;;;7.53;3.70;;;;;;;6.65;71.48;102215.16;5074762;28;20481;-70
2024/03/07 09:06:55;;;;;;;7.13;4.80;;;;;;;6.72;71.78;102215.00;5074015;28;20441;-70
2024/03/07 09:09:22;;;;;;;5.57;3.20;;;;;;;6.78;71.24;102217.59;5073931;28;20461;-70
2024/03/07 09:11:50;;;;;;;15.17;4.27;;;;;;;6.80;70.47;102215.47;5073809;28;20532;-70
2024/03/07 09:14:17;;;;;;;5.77;2.20;;;;;;;6.85;69.16;102214.78;5073828;28;20471;-69
2024/03/07 09:16:44;;;;;;;7.87;3.70;;;;;;;6.87;68.70;102222.63;5073830;28;20446;-69
2024/03/07 09:19:13;;;;;;;6.90;4.10;;;;;;;6.91;69.35;102216.53;5073781;28;20828;-67
2024/03/07 09:21:40;;;;;;;10.10;3.17;;;;;;;6.95;68.05;102215.00;5073273;28;20457;-68
2024/03/07 09:24:07;;;;;;;6.40;3.50;;;;;;;7.03;67.38;102211.13;5073350;28;20531;-71
2024/03/07 09:26:34;;;;;;;7.90;3.80;;;;;;;7.09;67.13;102223.66;5074195;28;20438;-69
2024/03/07 09:29:05;;;;;;;7.53;4.50;;;;;;;7.12;66.08;102220.47;5073626;28;20468;-69
2024/03/07 09:31:32;;;;;;;8.33;3.87;;;;;;;7.13;66.03;102215.91;5073753;28;20426;-69
2024/03/07 09:33:59;;;;;;;5.77;3.53;;;;;;;7.06;64.51;102226.81;5073550;28;20485;-69
2024/03/07 09:36:26;;;;;;;5.87;2.80;;;;;;;7.03;64.62;102216.50;5073605;28;20441;-69
2024/03/07 09:38:53;;;;;;;10.47;5.17;;;;;;;7.12;65.24;102212.38;5073527;28;20512;-70
2024/03/07 09:41:20;;;;;;;5.90;2.93;;;;;;;7.15;64.15;102214.63;5073656;28;20477;-69
2024/03/07 09:43:48;;;;;;;9.20;3.33;;;;;;;7.19;64.41;102210.38;5073442;28;20522;-67
2024/03/07 09:46:17;;;;;;;6.27;2.50;;;;;;;7.17;63.12;102215.22;5073813;28;20445;-69
2024/03/07 09:48:44;;;;;;;8.37;3.80;;;;;;;7.19;62.93;102210.38;5073656;28;20445;-69
2024/03/07 09:51:15;;;;;;;9.97;4.80;;;;;;;7.21;64.70;102212.84;5073880;28;20855;-68
2024/03/07 09:53:43;;;;;;;6.43;3.10;;;;;;;7.29;62.70;102215.97;5074632;28;20462;-69
2024/03/07 09:56:13;;;;;;;4.83;2.83;;;;;;;7.30;61.27;102217.63;5074606;28;20437;-68
2024/03/07 09:58:42;;;;;;;6.70;3.50;;;;;;;7.32;60.68;102206.59;5074363;28;20452;-71
2024/03/07 10:01:11;;;;;;;5.90;3.30;;;;;;;7.38;60.12;102199.44;5074795;28;20516;-72
2024/03/07 10:03:44;;;;;;;5.27;2.80;;;;;;;7.44;60.98;102203.88;5074554;28;20517;-69
2024/03/07 10:06:11;;;;;;;6.87;3.43;;;;;;;7.49;60.19;102203.97;5074649;28;20448;-70
2024/03/07 10:08:38;;;;;;;9.23;3.47;;;;;;;7.47;59.49;102206.09;5077016;28;20434;-71
2024/03/07 10:11:05;;;;;;;5.30;3.47;;;;;;;7.54;59.67;102196.81;5076217;28;20450;-69
2024/03/07 10:13:31;;;;;;;10.60;4.20;;;;;;;7.63;60.14;102199.13;5073963;28;20472;-69
2024/03/07 10:16:00;;;;;;;11.97;3.60;;;;;;;7.68;57.45;102201.91;5074699;28;20463;-68
2024/03/07 10:18:27;;;;;;;7.87;3.23;;;;;;;7.78;57.58;102202.91;5073824;28;20475;-68
2024/03/07 10:20:55;;;;;;;7.43;3.40;;;;;;;7.89;57.92;102203.91;5073492;28;20441;-67
2024/03/07 10:23:22;;;;;;;8.70;3.40;;;;;;;7.99;57.94;102203.28;5072481;28;20507;-67
2024/03/07 10:25:49;;;;;;;6.53;3.00;;;;;;;8.05;57.97;102200.41;5073110;28;20490;-67
2024/03/07 10:28:17;;;;;;;5.40;3.27;;;;;;;8.15;57.17;102194.38;5073137;28;20846;-67
2024/03/07 10:30:45;;;;;;;8.60;3.90;;;;;;;8.20;57.51;102194.47;5073037;28;20524;-67
2024/03/07 10:33:14;;;;;;;8.40;4.27;;;;;;;8.31;58.18;102196.25;5072903;28;20503;-67
2024/03/07 10:35:40;;;;;;;8.47;4.37;;;;;;;8.41;57.08;102190.22;5072699;28;20944;-68
2024/03/07 10:38:11;;;;;;;9.00;3.60;;;;;;;8.46;56.14;102192.19;5073334;28;20437;-68
2024/03/07 10:40:40;;;;;;;7.63;3.40;;;;;;;8.51;56.53;102195.78;5072760;28;20487;-68
2024/03/07 10:43:11;;;;;;;6.63;3.37;;;;;;;8.56;56.15;102182.34;5072796;28;20514;-68
2024/03/07 10:45:45;;;;;;;9.00;3.70;;;;;;;8.61;55.57;102184.31;5072641;28;20420;-68
2024/03/07 10:48:13;;;;;;;6.80;3.07;;;;;;;8.55;54.92;102179.91;5072922;28;20434;-68
2024/03/07 10:50:55;;;;;;;11.73;4.43;;;;;;;8.60;55.35;102171.88;5072658;28;20464;-68
2024/03/07 10:53:33;;;;;;;9.07;4.10;;;;;;;8.57;56.12;102173.16;5075210;28;20464;-68
2024/03/07 10:56:18;;;;;;;8.67;4.30;;;;;;;8.70;54.92;102169.31;5076837;28;20435;-68
2024/03/07 10:58:59;;;;;;;8.80;3.93;;;;;;;8.83;54.60;102166.25;5076418;28;20445;-67
2024/03/07 11:01:27;;;;;;;9.10;3.50;;;;;;;8.93;54.14;102167.44;5076071;28;20966;-68
2024/03/07 11:03:57;;;;;;;14.57;4.50;;;;;;;8.94;52.55;102169.06;5076051;28;20938;-68
2024/03/07 11:06:24;;;;;;;7.00;3.07;;;;;;;9.05;51.91;102168.13;5075956;28;20898;-68
2024/03/07 11:08:54;;;;;;;12.43;4.70;;;;;;;9.06;54.22;102169.78;5075943;28;20535;-67
2024/03/07 11:11:23;;;;;;;5.80;3.10;;;;;;;9.20;52.47;102168.31;5076539;28;20516;-67
2024/03/07 11:13:50;;;;;;;6.73;4.00;;;;;;;9.27;50.82;102171.66;5076516;28;20522;-67
2024/03/07 11:16:18;;;;;;;10.97;3.80;;;;;;;9.30;50.80;102165.75;5076495;28;20512;-67
2024/03/07 11:19:27;;;;;;;9.40;3.97;;;;;;;9.52;50.94;102164.91;5076123;28;20449;-67
2024/03/07 11:21:55;;;;;;;7.03;3.73;;;;;;;9.68;49.69;102163.97;5029247;28;20461;-67
2024/03/07 11:24:28;;;;;;;6.77;3.13;;;;;;;9.73;50.18;102164.00;5076036;28;20477;-67
2024/03/07 11:26:56;;;;;;;8.93;3.90;;;;;;;9.81;49.66;102155.44;5076176;28;20906;-67